Time;durP1;ratioP1;P1;durP2;ratioP2;P2;SDS_P1;SDS_P2;PMS_P1;PMS_P2;Temp;Humidity;BMP_temperature;BMP_pressure;BME280_temperature;BME280_humidity;BME280_pressure;Samples;Min_cycle;Max_cycle;Signal;HPM_P1;HPM_P2
2021/11/13 00:02:21;;;;;;;1.25;0.73;;;-2.00;99.90;;;;;;5154209;27;20034;-65
2021/11/13 00:04:47;;;;;;;0.80;0.80;;;-2.00;99.90;;;;;;5154206;27;20023;-65
2021/11/13 00:07:13;;;;;;;0.63;0.50;;;-2.00;99.90;;;;;;5154285;27;20058;-65
2021/11/13 00:09:39;;;;;;;0.73;0.73;;;-2.00;99.90;;;;;;5154822;27;20037;-65
2021/11/13 00:12:06;;;;;;;1.48;0.80;;;-1.90;99.90;;;;;;5154234;27;20554;-65
2021/11/13 00:14:32;;;;;;;2.55;0.80;;;-1.90;99.90;;;;;;5154486;27;20837;-65
2021/11/13 00:16:59;;;;;;;1.77;0.80;;;-1.90;99.90;;;;;;5154400;27;20026;-65
2021/11/13 00:19:25;;;;;;;0.90;0.70;;;-1.90;99.90;;;;;;5154289;27;20506;-65
2021/11/13 00:21:51;;;;;;;0.80;0.80;;;-1.90;99.90;;;;;;5154562;27;20023;-65
2021/11/13 00:24:17;;;;;;;0.90;0.80;;;-1.90;99.90;;;;;;5154173;27;20493;-65
2021/11/13 00:26:43;;;;;;;0.88;0.88;;;-2.00;99.90;;;;;;5154431;27;20034;-65
2021/11/13 00:29:10;;;;;;;0.70;0.70;;;-2.00;99.90;;;;;;5154002;27;20023;-65
2021/11/13 00:31:36;;;;;;;1.10;0.70;;;-2.00;99.90;;;;;;5153916;27;20062;-65
2021/11/13 00:34:02;;;;;;;0.85;0.77;;;-2.00;99.90;;;;;;5154106;27;20108;-65
2021/11/13 00:36:28;;;;;;;0.68;0.68;;;-2.00;99.90;;;;;;5153922;27;20034;-65
2021/11/13 00:38:54;;;;;;;4.05;0.90;;;-2.00;99.90;;;;;;5154049;27;20014;-66
2021/11/13 00:41:20;;;;;;;2.42;0.88;;;-2.00;99.90;;;;;;5153713;27;20134;-66
2021/11/13 00:43:49;;;;;;;1.00;0.82;;;-2.00;99.90;;;;;;5153900;27;20022;-66
2021/11/13 00:46:15;;;;;;;2.50;0.80;;;-2.00;99.90;;;;;;5153766;27;20037;-66
2021/11/13 00:48:41;;;;;;;2.22;0.80;;;-1.90;99.90;;;;;;5154134;27;20102;-66
2021/11/13 00:51:07;;;;;;;1.00;0.80;;;-2.00;99.90;;;;;;5153676;27;20420;-66
2021/11/13 00:53:33;;;;;;;1.00;0.80;;;-2.00;99.90;;;;;;5153808;27;20382;-66
2021/11/13 00:55:59;;;;;;;3.47;0.80;;;-2.00;99.90;;;;;;5153717;27;20067;-66
2021/11/13 00:58:26;;;;;;;1.10;0.85;;;-2.00;99.90;;;;;;5152603;27;20386;-66
2021/11/13 01:00:53;;;;;;;0.70;0.70;;;-2.00;99.90;;;;;;5153459;27;20019;-65
2021/11/13 01:03:19;;;;;;;1.08;0.80;;;-2.00;99.90;;;;;;5153486;27;20035;-65
2021/11/13 01:05:45;;;;;;;0.90;0.82;;;-2.00;99.90;;;;;;5153631;27;20023;-64
2021/11/13 01:08:11;;;;;;;2.97;0.90;;;-2.00;99.90;;;;;;5153574;27;20030;-65
2021/11/13 01:10:37;;;;;;;0.80;0.80;;;-1.90;99.90;;;;;;5153476;27;20034;-65
2021/11/13 01:13:03;;;;;;;1.25;0.70;;;-1.90;99.90;;;;;;5153480;27;20066;-65
2021/11/13 01:15:29;;;;;;;1.05;0.80;;;-1.90;99.90;;;;;;5154900;27;20054;-65
2021/11/13 01:17:56;;;;;;;2.63;0.88;;;-1.90;99.90;;;;;;5158069;27;20038;-65
2021/11/13 01:20:23;;;;;;;1.73;0.85;;;-2.00;99.90;;;;;;5157619;27;20352;-65
2021/11/13 01:22:49;;;;;;;0.75;0.75;;;-2.00;99.90;;;;;;5156485;27;20530;-66
2021/11/13 01:25:16;;;;;;;0.80;0.80;;;-2.00;99.90;;;;;;5157559;27;20367;-65
2021/11/13 01:27:42;;;;;;;2.15;0.90;;;-2.00;99.90;;;;;;5157600;27;20029;-65
2021/11/13 01:30:09;;;;;;;0.80;0.80;;;-2.00;99.90;;;;;;5157470;27;20033;-65
2021/11/13 01:32:36;;;;;;;1.33;0.90;;;-2.00;99.90;;;;;;5139126;27;20126;-66
2021/11/13 01:35:03;;;;;;;1.95;0.90;;;-2.00;99.90;;;;;;5157899;27;20103;-66
2021/11/13 01:37:29;;;;;;;1.08;0.80;;;-2.00;99.90;;;;;;5157441;27;20033;-66
2021/11/13 01:39:55;;;;;;;2.47;0.90;;;-2.00;99.90;;;;;;5157669;27;20022;-66
2021/11/13 01:42:25;;;;;;;1.17;0.85;;;-2.00;99.90;;;;;;5157450;27;20015;-66
2021/11/13 01:44:52;;;;;;;;;;;-2.00;99.90;;;;;;5158223;27;20382;-66
2021/11/13 01:47:18;;;;;;;1.35;0.80;;;-2.00;99.90;;;;;;5157127;27;19903;-66
2021/11/13 01:49:43;;;;;;;0.65;0.60;;;-2.10;99.90;;;;;;5157337;27;20023;-66
2021/11/13 01:52:10;;;;;;;0.88;0.88;;;-2.20;99.90;;;;;;5156976;27;20046;-66
2021/11/13 01:54:39;;;;;;;0.70;0.70;;;-2.20;99.90;;;;;;5157146;27;20026;-65
2021/11/13 01:57:11;;;;;;;2.70;0.85;;;-2.20;99.90;;;;;;5157067;27;20022;-66
2021/11/13 01:59:39;;;;;;;0.70;0.70;;;-2.20;99.90;;;;;;5155856;27;20473;-66
2021/11/13 02:02:06;;;;;;;0.80;0.80;;;-2.20;99.90;;;;;;5156827;27;20477;-66
2021/11/13 02:04:33;;;;;;;1.25;0.80;;;-2.30;99.90;;;;;;5157030;27;20375;-67
2021/11/13 02:06:59;;;;;;;0.80;0.80;;;-2.20;99.90;;;;;;5156872;27;20019;-67
2021/11/13 02:09:30;;;;;;;2.42;1.00;;;-2.20;99.90;;;;;;5156809;27;20382;-67
2021/11/13 02:11:56;;;;;;;2.15;0.90;;;-2.20;99.90;;;;;;5156983;27;20034;-67
2021/11/13 02:14:22;;;;;;;0.95;0.90;;;-2.20;99.90;;;;;;5155386;27;20034;-65
2021/11/13 02:16:48;;;;;;;1.05;0.98;;;-2.20;99.90;;;;;;5156943;27;20027;-65
2021/11/13 02:19:16;;;;;;;1.42;0.90;;;-2.20;99.90;;;;;;5156615;27;20481;-65
2021/11/13 02:21:41;;;;;;;1.00;1.00;;;-2.20;99.90;;;;;;5156863;27;20027;-65
2021/11/13 02:56:00;;;;;;;0.73;0.70;;;-2.30;99.90;;;;;;5155889;27;20391;-65
2021/11/13 02:58:26;;;;;;;2.13;0.80;;;-2.30;99.90;;;;;;5155993;27;20057;-65
2021/11/13 03:01:14;;;;;;;1.73;0.90;;;-2.30;99.90;;;;;;5156025;27;20022;-65
2021/11/13 03:03:40;;;;;;;1.55;0.90;;;-2.30;99.90;;;;;;5153892;27;20565;-65
2021/11/13 03:06:13;;;;;;;2.20;1.30;;;-2.40;99.90;;;;;;5154521;27;20027;-64
2021/11/13 03:08:41;;;;;;;0.90;0.90;;;-2.40;99.90;;;;;;5155803;27;20026;-65
2021/11/13 03:11:10;;;;;;;1.00;0.90;;;-2.30;99.90;;;;;;5155897;27;20483;-65
2021/11/13 03:13:38;;;;;;;0.70;0.70;;;-2.30;99.90;;;;;;5155653;27;20027;-64
2021/11/13 03:16:06;;;;;;;3.25;0.90;;;-2.30;99.90;;;;;;5155567;27;20466;-65
2021/11/13 03:18:32;;;;;;;0.95;0.80;;;-2.30;99.90;;;;;;5155469;27;20067;-65
2021/11/13 03:20:59;;;;;;;0.77;0.77;;;-2.30;99.90;;;;;;5155804;27;20394;-65
2021/11/13 03:23:25;;;;;;;3.67;0.80;;;-2.30;99.90;;;;;;5155428;27;20019;-65
2021/11/13 03:26:03;;;;;;;1.55;0.95;;;-2.30;99.90;;;;;;5155449;27;20237;-65
2021/11/13 03:28:30;;;;;;;3.97;0.90;;;-2.30;99.90;;;;;;5155295;27;20050;-66
2021/11/13 03:31:01;;;;;;;4.45;1.02;;;-2.30;99.90;;;;;;5154090;27;20564;-66
2021/11/13 03:33:28;;;;;;;2.60;0.82;;;-2.20;99.90;;;;;;5155206;27;20523;-66
2021/11/13 03:35:54;;;;;;;1.42;0.80;;;-2.20;99.90;;;;;;5155222;27;20134;-66
2021/11/13 03:38:20;;;;;;;0.80;0.80;;;-2.20;99.90;;;;;;5153130;27;20023;-66
2021/11/13 03:40:48;;;;;;;0.70;0.70;;;-2.20;99.90;;;;;;5155163;27;20027;-66
2021/11/13 03:43:15;;;;;;;2.85;0.90;;;-2.20;99.90;;;;;;5155120;27;20098;-66
2021/11/13 03:45:42;;;;;;;0.75;0.75;;;-2.10;99.90;;;;;;5154985;27;20030;-65
2021/11/13 03:48:08;;;;;;;1.35;0.98;;;-2.10;99.90;;;;;;5154790;27;20014;-65
2021/11/13 03:50:34;;;;;;;0.80;0.80;;;-2.10;99.90;;;;;;5153857;27;20390;-65
2021/11/13 03:53:01;;;;;;;1.17;0.90;;;-2.10;99.90;;;;;;5155053;27;20018;-65
2021/11/13 03:55:27;;;;;;;0.70;0.70;;;-2.00;99.90;;;;;;5154917;27;20026;-65
2021/11/13 03:57:53;;;;;;;0.70;0.70;;;-2.00;99.90;;;;;;5154595;27;20390;-65
2021/11/13 04:00:22;;;;;;;1.00;0.90;;;-2.00;99.90;;;;;;5154530;27;20467;-64
2021/11/13 04:02:49;;;;;;;0.63;0.63;;;-1.90;99.90;;;;;;5154414;27;20371;-65
2021/11/13 04:05:16;;;;;;;1.75;0.70;;;-1.90;99.90;;;;;;5154483;27;20088;-65
2021/11/13 04:07:42;;;;;;;1.00;0.90;;;-1.90;99.90;;;;;;5154769;27;20159;-65
2021/11/13 04:10:10;;;;;;;0.80;0.80;;;-1.90;99.90;;;;;;5153142;27;20027;-65
2021/11/13 04:12:37;;;;;;;0.80;0.80;;;-1.90;99.90;;;;;;5154415;27;20030;-65
2021/11/13 04:15:04;;;;;;;2.42;0.90;;;-1.90;99.90;;;;;;5154566;27;20030;-65
2021/11/13 04:17:30;;;;;;;1.25;0.90;;;-1.90;99.90;;;;;;5154397;27;20050;-65
2021/11/13 04:19:57;;;;;;;0.93;0.82;;;-1.90;99.90;;;;;;5154370;27;20029;-65
2021/11/13 04:22:23;;;;;;;0.95;0.73;;;-1.90;99.90;;;;;;5154123;27;20462;-65
2021/11/13 04:24:49;;;;;;;0.90;0.90;;;-1.90;99.90;;;;;;5154347;27;20041;-65
2021/11/13 04:27:15;;;;;;;0.98;0.70;;;-1.80;99.90;;;;;;5154137;27;20022;-65
2021/11/13 04:29:42;;;;;;;3.42;1.08;;;-1.90;99.90;;;;;;5154397;27;20091;-65
2021/11/13 04:32:08;;;;;;;0.70;0.70;;;-1.90;99.90;;;;;;5154005;27;20027;-65
2021/11/13 04:34:46;;;;;;;0.75;0.75;;;-1.90;99.90;;;;;;5154486;27;20026;-65
2021/11/13 04:37:18;;;;;;;0.77;0.75;;;-2.00;99.90;;;;;;5153900;27;20034;-65
2021/11/13 04:39:45;;;;;;;0.70;0.70;;;-2.00;99.90;;;;;;5154466;27;20053;-65
2021/11/13 04:42:11;;;;;;;0.88;0.88;;;-2.00;99.90;;;;;;5153778;27;20027;-65
2021/11/13 04:44:37;;;;;;;2.67;0.75;;;-2.10;99.90;;;;;;5153879;27;20374;-65
2021/11/13 04:47:04;;;;;;;0.70;0.70;;;-2.10;99.90;;;;;;5154074;27;20030;-65
2021/11/13 04:49:30;;;;;;;2.85;0.98;;;-2.20;99.90;;;;;;5153226;27;20042;-65
2021/11/13 04:51:55;;;;;;;0.60;0.60;;;-2.20;99.90;;;;;;5153519;27;20623;-65
2021/11/13 04:54:21;;;;;;;1.10;0.70;;;-2.30;99.90;;;;;;5153558;27;20018;-65
2021/11/13 04:56:47;;;;;;;0.77;0.77;;;-2.40;99.90;;;;;;5153706;27;20037;-65
2021/11/13 04:59:13;;;;;;;1.48;0.75;;;-2.50;99.90;;;;;;5153511;27;20083;-65
2021/11/13 05:01:39;;;;;;;1.00;0.90;;;-2.50;99.90;;;;;;5153477;27;20038;-65
2021/11/13 05:04:05;;;;;;;3.40;1.05;;;-2.60;99.90;;;;;;5153421;27;20030;-65
2021/11/13 05:06:31;;;;;;;2.53;0.80;;;-2.60;99.90;;;;;;5153722;27;20026;-65
2021/11/13 05:08:57;;;;;;;0.80;0.80;;;-2.50;99.90;;;;;;5153524;27;20025;-65
2021/11/13 05:11:24;;;;;;;0.70;0.70;;;-2.50;99.90;;;;;;5153412;27;20030;-65
2021/11/13 05:13:50;;;;;;;2.88;0.88;;;-2.50;99.90;;;;;;5153602;27;20076;-65
2021/11/13 05:16:15;;;;;;;1.45;0.88;;;-2.60;99.90;;;;;;5153715;27;20027;-65
2021/11/13 05:18:41;;;;;;;2.85;0.85;;;-2.70;99.90;;;;;;5153502;27;20015;-65
2021/11/13 05:21:07;;;;;;;1.00;0.90;;;-2.70;99.90;;;;;;5153304;27;20026;-65
2021/11/13 05:23:33;;;;;;;3.78;0.82;;;-2.80;99.90;;;;;;5153403;27;20023;-64
2021/11/13 05:25:59;;;;;;;1.98;0.80;;;-2.70;99.90;;;;;;5153409;27;20022;-64
2021/11/13 05:28:25;;;;;;;2.50;0.80;;;-2.70;99.90;;;;;;5151933;27;20041;-65
2021/11/13 05:30:51;;;;;;;2.53;0.90;;;-2.70;99.90;;;;;;5153322;27;20019;-65
2021/11/13 05:33:17;;;;;;;1.13;1.05;;;-2.70;99.90;;;;;;5153487;27;20027;-63
2021/11/13 05:35:43;;;;;;;0.70;0.70;;;-2.70;99.90;;;;;;5153438;27;20383;-64
2021/11/13 05:38:09;;;;;;;2.47;1.00;;;-2.80;99.90;;;;;;5153190;27;20151;-63
2021/11/13 05:40:35;;;;;;;1.67;1.02;;;-2.80;99.90;;;;;;5153371;27;20050;-65
2021/11/13 05:43:00;;;;;;;1.08;0.90;;;-1.30;99.90;;;;;;5153261;27;20031;-63
2021/11/13 05:45:26;;;;;;;1.33;0.90;;;1.60;99.90;;;;;;5153018;27;20122;-64
2021/11/13 05:47:53;;;;;;;0.88;0.85;;;1.40;99.90;;;;;;5150085;27;20504;-66
2021/11/13 05:50:19;;;;;;;1.77;0.70;;;0.50;99.90;;;;;;5135708;27;20023;-65
2021/11/13 05:52:47;;;;;;;0.70;0.70;;;-0.30;99.90;;;;;;5137731;27;20039;-67
2021/11/13 05:55:14;;;;;;;1.20;0.70;;;-0.90;99.90;;;;;;5138767;27;20080;-68
2021/11/13 05:57:40;;;;;;;1.88;0.90;;;-1.30;99.90;;;;;;5141961;27;20027;-67
2021/11/13 06:00:12;;;;;;;4.00;0.77;;;-1.60;99.90;;;;;;5143351;27;20083;-67
2021/11/13 06:02:39;;;;;;;1.20;0.90;;;-1.80;99.90;;;;;;5151634;27;20054;-66
2021/11/13 06:05:06;;;;;;;2.28;1.70;;;-2.10;99.90;;;;;;5145169;27;20479;-67
2021/11/13 06:07:32;;;;;;;1.52;1.10;;;-2.20;99.90;;;;;;5139579;27;20398;-67
2021/11/13 06:09:58;;;;;;;1.83;1.40;;;-2.30;99.90;;;;;;5129206;27;20106;-67
2021/11/13 06:12:23;;;;;;;0.80;0.80;;;-2.40;99.90;;;;;;5145152;27;20452;-67
2021/11/13 06:14:49;;;;;;;1.17;0.90;;;-2.40;99.90;;;;;;5143153;27;20018;-69
2021/11/13 06:17:15;;;;;;;1.77;0.90;;;-2.50;99.90;;;;;;5141018;27;20027;-67
2021/11/13 06:19:41;;;;;;;5.50;1.20;;;-2.60;99.90;;;;;;5124732;27;20064;-67
2021/11/13 06:22:07;;;;;;;1.33;1.23;;;-2.10;99.90;;;;;;5125137;27;20114;-66
2021/11/13 06:24:33;;;;;;;1.95;0.88;;;-1.30;99.90;;;;;;5125380;27;20477;-66
2021/11/13 06:26:59;;;;;;;0.88;0.70;;;-0.70;99.90;;;;;;5118716;27;20510;-67
2021/11/13 06:29:25;;;;;;;2.42;1.13;;;-0.20;99.90;;;;;;5114988;28;20055;-67
2021/11/13 06:31:51;;;;;;;0.90;0.90;;;0.10;99.90;;;;;;5115148;28;20067;-66
2021/11/13 06:34:16;;;;;;;0.90;0.80;;;0.30;99.90;;;;;;5096649;28;20111;-66
2021/11/13 06:36:42;;;;;;;1.90;0.90;;;-0.20;99.90;;;;;;5115357;28;20054;-66
2021/11/13 06:39:08;;;;;;;0.80;0.80;;;-0.60;99.90;;;;;;5113732;28;20044;-66
2021/11/13 06:41:34;;;;;;;1.27;0.70;;;-0.80;99.90;;;;;;5115123;28;20387;-66
2021/11/13 06:44:00;;;;;;;1.17;0.63;;;-1.00;99.90;;;;;;5114867;28;20024;-66
2021/11/13 06:46:27;;;;;;;0.70;0.70;;;-1.10;99.90;;;;;;5114716;28;20036;-66
2021/11/13 06:48:53;;;;;;;0.82;0.75;;;-1.10;99.90;;;;;;5114759;28;20043;-66
2021/11/13 06:51:20;;;;;;;0.60;0.60;;;-1.20;99.90;;;;;;5114721;27;20099;-66
2021/11/13 06:53:46;;;;;;;1.15;1.00;;;-1.20;99.90;;;;;;5114646;28;20036;-66
2021/11/13 06:56:13;;;;;;;1.30;0.98;;;-0.90;99.90;;;;;;5114631;28;20032;-65
2021/11/13 06:58:39;;;;;;;0.85;0.85;;;-0.20;99.90;;;;;;5114646;28;20024;-65
2021/11/13 07:01:05;;;;;;;1.10;0.82;;;0.00;99.90;;;;;;5114350;27;20652;-67
2021/11/13 07:03:31;;;;;;;1.38;1.08;;;-0.50;99.90;;;;;;5114476;28;20054;-67
2021/11/13 07:05:58;;;;;;;1.25;1.13;;;-1.00;99.90;;;;;;5113227;28;20024;-67
2021/11/13 07:08:23;;;;;;;1.13;0.70;;;-1.30;99.90;;;;;;5114398;28;20550;-68
2021/11/13 07:10:52;;;;;;;0.88;0.75;;;-1.50;99.90;;;;;;5114442;28;20166;-67
2021/11/13 07:13:23;;;;;;;1.35;1.15;;;-1.80;99.90;;;;;;5113581;28;20068;-67
2021/11/13 07:15:50;;;;;;;2.70;1.10;;;-2.00;99.90;;;;;;5114521;28;20421;-67
2021/11/13 07:18:16;;;;;;;1.60;0.73;;;-2.10;99.90;;;;;;5114485;28;20031;-67
2021/11/13 07:20:42;;;;;;;0.95;0.95;;;-2.20;99.90;;;;;;5128673;27;20023;-65
2021/11/13 07:23:09;;;;;;;1.30;0.82;;;-2.40;99.90;;;;;;5133533;27;20038;-66
2021/11/13 07:25:35;;;;;;;3.42;1.70;;;-2.50;99.90;;;;;;5134196;27;20050;-65
2021/11/13 07:28:04;;;;;;;1.05;0.85;;;-2.50;99.90;;;;;;5134307;27;20023;-67
2021/11/13 07:30:39;;;;;;;0.93;0.93;;;-2.60;99.90;;;;;;5134367;27;20027;-67
2021/11/13 07:33:07;;;;;;;2.22;1.10;;;-2.60;99.90;;;;;;5134290;27;20031;-70
2021/11/13 07:35:34;;;;;;;1.35;1.05;;;-2.70;99.90;;;;;;5133729;27;20053;-65
2021/11/13 07:38:00;;;;;;;2.78;1.42;;;-2.70;99.90;;;;;;5134225;27;20068;-67
2021/11/13 07:40:26;;;;;;;10.25;2.67;;;-2.40;99.90;;;;;;5134193;27;20462;-67
2021/11/13 07:42:52;;;;;;;1.80;0.93;;;-0.80;99.90;;;;;;5134286;27;20113;-67
2021/11/13 07:45:17;;;;;;;3.33;1.00;;;0.50;99.90;;;;;;5133667;27;20566;-67
2021/11/13 07:47:43;;;;;;;1.00;0.93;;;1.20;99.90;;;;;;5133847;27;20023;-66
2021/11/13 07:50:12;;;;;;;0.60;0.60;;;1.60;99.90;;;;;;5134108;27;20027;-67
2021/11/13 07:52:38;;;;;;;2.10;1.90;;;2.00;99.90;;;;;;5133549;27;20122;-65
2021/11/13 07:55:04;;;;;;;11.93;5.45;;;2.30;99.90;;;;;;5133741;27;20123;-65
2021/11/13 07:57:30;;;;;;;2.92;1.73;;;2.60;99.90;;;;;;5133388;27;20592;-65
2021/11/13 07:59:56;;;;;;;1.95;1.10;;;2.90;99.90;;;;;;5133497;27;20023;-65
2021/11/13 08:02:21;;;;;;;0.80;0.80;;;3.10;99.90;;;;;;5133481;27;20067;-63
2021/11/13 08:04:48;;;;;;;1.40;0.80;;;2.80;99.90;;;;;;5133351;27;20562;-64
2021/11/13 08:07:14;;;;;;;1.25;1.13;;;1.70;99.90;;;;;;5133512;27;20015;-63
2021/11/13 08:09:39;;;;;;;4.47;2.30;;;0.70;99.90;;;;;;5133564;27;20026;-63
2021/11/13 08:12:06;;;;;;;7.97;3.45;;;0.20;99.90;;;;;;5133604;27;20118;-63
2021/11/13 08:14:31;;;;;;;5.80;3.35;;;-0.40;99.90;;;;;;5133163;27;20546;-63
2021/11/13 08:16:57;;;;;;;2.53;2.33;;;-0.70;99.90;;;;;;5132924;27;20117;-63
2021/11/13 08:19:23;;;;;;;3.17;2.10;;;-1.00;99.90;;;;;;5133367;27;20106;-65
2021/11/13 08:21:48;;;;;;;3.22;1.83;;;-1.20;99.90;;;;;;5133311;27;20019;-63
2021/11/13 08:24:18;;;;;;;2.03;1.40;;;-1.30;99.90;;;;;;5133134;27;20486;-63
2021/11/13 08:26:43;;;;;;;3.00;1.60;;;-1.40;99.90;;;;;;5132908;27;20019;-64
2021/11/13 08:29:11;;;;;;;2.10;1.90;;;-1.50;99.90;;;;;;5133221;27;20019;-63
2021/11/13 08:31:37;;;;;;;4.15;2.42;;;-1.50;99.90;;;;;;5132818;27;20511;-64
2021/11/13 08:34:03;;;;;;;3.53;2.50;;;-1.60;99.90;;;;;;5133050;27;20031;-64
2021/11/13 08:36:29;;;;;;;3.60;2.63;;;-1.60;99.90;;;;;;5133031;27;20026;-64
2021/11/13 08:38:55;;;;;;;3.30;2.25;;;-1.60;99.90;;;;;;5132860;27;20044;-63
2021/11/13 08:41:21;;;;;;;4.15;2.17;;;-1.50;99.90;;;;;;5133158;27;20054;-63
2021/11/13 08:43:48;;;;;;;4.00;1.58;;;-1.60;99.90;;;;;;5133038;27;20031;-63
2021/11/13 08:46:14;;;;;;;2.92;1.52;;;-1.60;99.90;;;;;;5132857;27;20015;-63
2021/11/13 08:48:40;;;;;;;1.40;1.20;;;-1.60;99.90;;;;;;5132813;27;20050;-63
2021/11/13 08:51:06;;;;;;;1.70;1.60;;;-1.70;99.90;;;;;;5132818;27;20054;-63
2021/11/13 08:53:31;;;;;;;2.78;1.65;;;-1.70;99.90;;;;;;5132604;27;20035;-63
2021/11/13 08:55:57;;;;;;;1.95;1.25;;;-1.80;99.90;;;;;;5132929;27;20016;-63
2021/11/13 08:58:23;;;;;;;2.03;1.42;;;-1.80;99.90;;;;;;5132391;27;20390;-64
2021/11/13 09:00:56;;;;;;;1.98;1.17;;;-1.80;99.90;;;;;;5132383;27;20027;-66
2021/11/13 09:03:40;;;;;;;3.28;1.40;;;-1.80;99.90;;;;;;5132924;27;20076;-64
2021/11/13 09:06:10;;;;;;;1.95;1.05;;;-1.90;99.90;;;;;;5148414;27;20033;-63
2021/11/13 09:08:37;;;;;;;1.38;1.08;;;-1.90;99.90;;;;;;5153440;27;20027;-63
2021/11/13 09:11:04;;;;;;;1.38;1.17;;;-1.60;99.90;;;;;;5153346;27;20023;-64
2021/11/13 09:13:30;;;;;;;1.20;0.90;;;0.60;99.90;;;;;;5153515;27;20103;-64
2021/11/13 09:15:59;;;;;;;1.48;1.10;;;0.50;99.90;;;;;;5153501;27;20050;-64
2021/11/13 09:18:25;;;;;;;1.42;0.95;;;-0.20;99.90;;;;;;5153417;27;20050;-64
2021/11/13 09:20:52;;;;;;;1.00;0.90;;;-0.70;99.90;;;;;;5153504;27;20072;-64
2021/11/13 09:23:18;;;;;;;1.25;1.15;;;-1.00;99.90;;;;;;5142253;27;20594;-64
2021/11/13 09:25:45;;;;;;;3.45;1.50;;;-1.20;99.90;;;;;;5133021;28;20027;-64
2021/11/13 09:28:11;;;;;;;2.88;0.93;;;-1.30;99.90;;;;;;5144931;27;20026;-64
2021/11/13 09:30:39;;;;;;;2.20;1.15;;;-1.40;99.90;;;;;;5153543;27;20030;-64
2021/11/13 09:33:06;;;;;;;3.20;1.42;;;-1.40;99.90;;;;;;5146857;27;20031;-64
2021/11/13 09:35:33;;;;;;;2.47;1.00;;;-1.40;99.90;;;;;;5148611;27;20019;-64
2021/11/13 09:37:59;;;;;;;1.40;1.10;;;-1.40;99.90;;;;;;5147221;27;20065;-64
2021/11/13 09:40:26;;;;;;;1.10;1.00;;;-1.40;99.90;;;;;;5145224;27;20067;-64
2021/11/13 09:42:56;;;;;;;1.70;1.02;;;-1.50;99.90;;;;;;5157520;27;20538;-64
2021/11/13 09:45:22;;;;;;;3.00;1.17;;;-1.40;99.90;;;;;;5147480;27;20046;-64
2021/11/13 09:47:50;;;;;;;2.75;1.00;;;-1.40;99.90;;;;;;5151624;27;20397;-64
2021/11/13 09:50:17;;;;;;;1.38;1.10;;;-1.40;99.90;;;;;;5157302;27;20038;-64
2021/11/13 09:52:43;;;;;;;1.40;1.17;;;-1.40;99.90;;;;;;5157139;27;20110;-64
2021/11/13 09:55:11;;;;;;;1.42;1.33;;;-1.40;99.90;;;;;;5132621;27;20032;-64
2021/11/13 09:57:38;;;;;;;1.60;1.50;;;-1.40;99.90;;;;;;5130062;27;20035;-64
2021/11/13 10:00:17;;;;;;;3.47;1.70;;;-1.40;99.90;;;;;;5136617;27;20019;-65
2021/11/13 10:02:43;;;;;;;3.22;1.80;;;-1.40;99.90;;;;;;5136178;27;20507;-65
2021/11/13 10:05:13;;;;;;;1.40;1.30;;;-1.30;99.90;;;;;;5134408;27;20152;-64
2021/11/13 10:07:39;;;;;;;2.03;1.50;;;-1.30;99.90;;;;;;5127816;27;20015;-62
2021/11/13 10:10:07;;;;;;;3.22;1.27;;;-1.30;99.90;;;;;;5120935;27;20019;-62
2021/11/13 10:12:38;;;;;;;2.40;1.60;;;-1.20;99.90;;;;;;5115349;28;20034;-62
2021/11/13 10:15:25;;;;;;;2.13;1.48;;;-1.10;99.90;;;;;;5115702;28;20048;-62
2021/11/13 10:18:18;;;;;;;1.58;1.10;;;-1.10;99.90;;;;;;5115459;28;20024;-62
2021/11/13 10:21:05;;;;;;;1.92;1.10;;;-1.10;99.90;;;;;;5115338;28;20064;-62
2021/11/13 10:23:45;;;;;;;1.05;0.95;;;-1.10;99.90;;;;;;5114704;28;20043;-62
2021/11/13 10:26:34;;;;;;;1.25;1.15;;;-1.10;99.90;;;;;;5115211;28;20020;-62
2021/11/13 10:29:11;;;;;;;1.58;1.10;;;-1.00;99.90;;;;;;5084711;28;20404;-62
2021/11/13 10:31:46;;;;;;;1.88;1.20;;;-1.00;99.90;;;;;;5125632;27;20126;-62
2021/11/13 10:34:15;;;;;;;1.55;0.93;;;-1.00;99.90;;;;;;5126385;27;20058;-62
2021/11/13 10:36:52;;;;;;;2.47;1.10;;;-0.90;99.90;;;;;;5126188;27;20222;-62
2021/11/13 10:39:21;;;;;;;2.13;1.05;;;-0.90;99.90;;;;;;5125312;27;20028;-62
2021/11/13 10:41:50;;;;;;;2.75;1.08;;;-0.90;99.90;;;;;;5120209;27;20031;-63
2021/11/13 10:44:23;;;;;;;2.22;1.05;;;-0.90;99.90;;;;;;5115234;28;20031;-62
2021/11/13 10:46:49;;;;;;;1.60;1.08;;;-0.90;99.90;;;;;;5128330;27;20529;-63
2021/11/13 10:49:16;;;;;;;2.45;1.20;;;-0.90;99.90;;;;;;5156431;27;20381;-63
2021/11/13 10:51:54;;;;;;;1.05;0.98;;;-0.90;99.90;;;;;;5155941;27;20035;-63
2021/11/13 10:54:21;;;;;;;2.90;1.10;;;-0.90;99.90;;;;;;5156076;27;20030;-63
2021/11/13 10:56:50;;;;;;;1.30;1.02;;;-0.80;99.90;;;;;;5156371;27;20023;-63
2021/11/13 10:59:17;;;;;;;5.63;2.00;;;-0.80;99.90;;;;;;5155897;27;20098;-65
2021/11/13 11:01:48;;;;;;;4.72;1.73;;;-0.80;99.90;;;;;;5155657;27;20518;-63
2021/11/13 11:04:22;;;;;;;2.08;1.30;;;-0.80;99.90;;;;;;5156092;27;20034;-63
2021/11/13 11:07:00;;;;;;;1.27;1.17;;;-0.70;99.90;;;;;;5156117;27;20029;-63
2021/11/13 11:09:31;;;;;;;1.38;1.20;;;-0.70;99.90;;;;;;5155726;27;20019;-63
2021/11/13 11:12:00;;;;;;;3.00;1.10;;;-0.70;99.90;;;;;;5156039;27;20035;-63
2021/11/13 11:14:29;;;;;;;1.05;1.02;;;-0.70;99.90;;;;;;5155467;27;20026;-63
2021/11/13 11:17:07;;;;;;;4.57;1.70;;;-0.60;99.90;;;;;;5155627;27;20075;-63
2021/11/13 11:19:36;;;;;;;1.88;1.25;;;-0.60;99.90;;;;;;5155505;27;20034;-63
2021/11/13 11:22:05;;;;;;;1.40;1.30;;;-0.60;99.90;;;;;;5155654;27;20107;-63
2021/11/13 11:24:48;;;;;;;1.50;1.30;;;-0.60;99.90;;;;;;5155458;27;20501;-63
2021/11/13 11:27:24;;;;;;;2.35;1.30;;;-0.60;99.90;;;;;;5155568;27;20031;-62
2021/11/13 11:30:03;;;;;;;2.08;1.10;;;-0.50;99.90;;;;;;5155414;27;20029;-64
2021/11/13 11:32:54;;;;;;;1.20;1.10;;;-0.50;99.90;;;;;;5155149;27;20034;-63
2021/11/13 11:35:22;;;;;;;1.95;1.50;;;-0.50;99.90;;;;;;5146622;27;20034;-63
2021/11/13 11:38:02;;;;;;;3.65;1.58;;;-0.50;99.90;;;;;;5155069;27;20033;-63
2021/11/13 11:40:33;;;;;;;2.08;1.70;;;-0.50;99.90;;;;;;5153736;27;20018;-63
2021/11/13 11:43:00;;;;;;;2.78;1.55;;;-0.50;99.90;;;;;;5155041;27;20034;-63
2021/11/13 11:45:33;;;;;;;3.08;1.20;;;-0.50;99.90;;;;;;5154764;27;20044;-63
2021/11/13 11:47:59;;;;;;;1.30;1.20;;;-0.50;99.90;;;;;;5155295;27;20378;-64
2021/11/13 11:50:31;;;;;;;1.27;1.08;;;-0.50;99.90;;;;;;5154652;27;20026;-66
2021/11/13 11:52:59;;;;;;;1.38;1.10;;;-0.20;99.90;;;;;;5154757;27;20042;-65
2021/11/13 11:55:26;;;;;;;3.72;1.45;;;1.20;99.90;;;;;;5154543;27;20359;-65
2021/11/13 11:58:17;;;;;;;2.63;1.20;;;1.30;99.90;;;;;;5144650;27;20102;-65
2021/11/13 12:00:44;;;;;;;4.38;1.35;;;0.80;99.90;;;;;;5125567;27;20102;-65
2021/11/13 12:03:25;;;;;;;3.75;1.30;;;0.50;99.90;;;;;;5133511;27;20051;-67
2021/11/13 12:05:53;;;;;;;1.98;1.20;;;0.40;99.90;;;;;;5134108;27;20390;-66
2021/11/13 12:08:25;;;;;;;2.90;1.38;;;0.20;99.90;;;;;;5133845;27;20019;-64
2021/11/13 12:10:53;;;;;;;2.25;1.50;;;0.10;99.90;;;;;;5133931;27;20023;-65
2021/11/13 12:13:28;;;;;;;2.65;1.35;;;0.00;99.90;;;;;;5134149;27;20080;-65
2021/11/13 12:16:00;;;;;;;3.67;1.40;;;0.00;99.90;;;;;;5133593;27;20098;-65
2021/11/13 12:18:30;;;;;;;2.47;1.58;;;0.00;99.90;;;;;;5133893;27;20051;-65
2021/11/13 12:21:02;;;;;;;;;;;0.00;99.90;;;;;;5133993;27;20404;-65
2021/11/13 12:23:32;;;;;;;1.92;1.48;;;-0.10;99.90;;;;;;5133850;27;19903;-65
2021/11/13 12:26:05;;;;;;;1.60;1.50;;;-0.20;99.90;;;;;;5132240;27;20030;-64
2021/11/13 12:28:34;;;;;;;1.40;1.30;;;-0.20;99.90;;;;;;5133459;27;20068;-66
2021/11/13 12:31:06;;;;;;;1.55;1.02;;;-0.10;99.90;;;;;;5133432;27;20068;-66
2021/11/13 12:33:32;;;;;;;1.88;1.50;;;0.40;99.90;;;;;;5133295;27;20110;-65
2021/11/13 12:36:04;;;;;;;2.45;1.58;;;1.70;99.90;;;;;;5133672;27;20090;-65
2021/11/13 12:38:46;;;;;;;2.53;1.50;;;1.40;99.90;;;;;;5133327;27;20022;-65
2021/11/13 12:41:14;;;;;;;4.18;1.67;;;1.00;99.90;;;;;;5133527;27;20105;-65
2021/11/13 12:43:55;;;;;;;3.03;1.63;;;0.70;99.90;;;;;;5133229;27;20052;-65
2021/11/13 12:46:34;;;;;;;3.40;1.60;;;0.40;99.90;;;;;;5133272;27;20072;-65
2021/11/13 12:52:00;;;;;;;4.03;1.52;;;0.40;99.90;;;;;;5133276;27;20042;-68
2021/11/13 12:54:58;;;;;;;2.80;1.63;;;0.50;99.90;;;;;;5133010;27;20023;-68
2021/11/13 12:57:40;;;;;;;2.38;1.48;;;0.30;99.90;;;;;;5134013;27;20142;-67
2021/11/13 13:00:15;;;;;;;4.65;1.67;;;0.10;99.90;;;;;;5153687;27;20038;-68
2021/11/13 13:02:42;;;;;;;2.63;1.80;;;0.00;99.90;;;;;;5153407;27;20634;-65
2021/11/13 13:05:13;;;;;;;3.50;1.83;;;-0.10;99.90;;;;;;5147297;27;20121;-65
2021/11/13 13:07:48;;;;;;;3.25;1.83;;;-0.20;99.90;;;;;;5153519;27;20019;-65
2021/11/13 13:10:14;;;;;;;4.90;2.00;;;-0.20;99.90;;;;;;5153226;27;20027;-64
2021/11/13 13:12:42;;;;;;;2.70;1.45;;;-0.30;99.90;;;;;;5152776;27;20031;-65
2021/11/13 13:15:16;;;;;;;1.70;1.50;;;0.30;99.90;;;;;;5153497;27;20023;-65
2021/11/13 13:17:47;;;;;;;1.52;1.33;;;0.30;99.90;;;;;;5152145;27;20122;-66
2021/11/13 13:20:21;;;;;;;3.50;1.65;;;0.10;99.90;;;;;;5153530;27;20018;-65
2021/11/13 13:22:47;;;;;;;2.85;1.50;;;-0.20;99.90;;;;;;5153700;27;20098;-66
2021/11/13 13:25:13;;;;;;;1.45;1.35;;;-0.30;99.90;;;;;;5153414;27;20566;-66
2021/11/13 13:27:39;;;;;;;1.95;1.42;;;-0.30;99.90;;;;;;5153232;27;20493;-65
2021/11/13 13:30:12;;;;;;;3.50;1.30;;;-0.20;99.90;;;;;;5153142;27;20062;-65